Borisov, Belarus
Current Conditions -  °F | °C
As of 4:00 AM on Sunday 26 Oct 2014 (Local Time) from UMMS Reporting Station
Clear Clear  
Wind Chill: 13°   Ceiling: Unl
Heat Index: 23°   Visibility: 6mi
Dew Point: 14°   Wind: 9mph
Humidity: 68%   Direction: 170°S
Pressure: 30.5"   Gusts: NA
Location:  54.22°N, 28.51°E
Report Text: UMMS 260200Z 17004MPS CAVOK M05/M10 Q1033 R13/CLRD// NOSIG
Loading
Personal Weather Stations






























Interactive Weather Map
Tropical Storm Tracking
New forecast layout! Learn more

10-Day Weather Forecast

Advertisements
Track Severe Weather on mobile